Red River, NM

4:30 PM MST on December 17, 2014 (GMT -0700)
Upper Twining Rd. TSV | Change Station
CLOSE
Current Station
Personal Weather Station
Location: Taos Ski Valley, NM
Elevation: 9915 ft
Nearby Weather Stations
Active Advisory: Winter Weather Advisory Active Notice: Public Information Statement

Elev 9915 ft 36.58 °N, 105.44 °W | Updated 2 minutes ago

Snow
Snow
22.5 °F
Feels Like 22 °F
N
0.0
Wind Variable Wind from NNE
Gusts 0.0 mph

Today
High -- | Low -- °F
--% Chance of Precip.
Yesterday
High -- | Low -- °F
Precip. -- in
7:07 AM 4:47 PM
Waning Crescent, 19% visible
Pressure 29.95 in
Visibility 7.0 miles
Clouds Mostly Cloudy 1600 ft
Overcast 3900 ft
Windchill 22 °F
Dew Point 20 °F
Humidity 92%
Rainfall 0.00 in
Snow Depth Not available.
UV 0 out of 12
Pollen .10 out of 12
Air Quality Not available.
Flu Activity Not available.
METAR KAXX 172315Z AUTO 25007G14KT 7SM -SN BKN016 OVC039 M02/M05 A2995 RMK AO2 T10171046

More Conditions Fewer Conditions

Pressure 29.95 in
Visibility 7.0 miles
Clouds Mostly Cloudy 1600 ft
Overcast 3900 ft
Windchill 22 °F
Dew Point 20 °F
Humidity 92%
Rainfall 0.00 in
Snow Depth Not available.
UV 0 out of 12
Pollen .10 out of 12
Air Quality Not available.
Flu Activity Not available.
METAR KAXX 172315Z AUTO 25007G14KT 7SM -SN BKN016 OVC039 M02/M05 A2995 RMK AO2 T10171046

More Conditions Fewer Conditions

Nowcast | as of 4:00 PM MST on December 17, 2014

Batches of showers and some areas of steady precipitation will continue to impact portions of central to north central New Mexico through the late afternoon hours. Snow levels will generally hover between 5500 and 6500 feet with a few hundredths of an inch of rain expected below and a dusting to another couple of inches of fresh snow possible above. Rain will impact locations near oscuro...Carrizozo...Bernardo...Belen...Los Lunas...and Albuquerque...Rio Rancho...and Bernalillo. Some snow may occasionally mix with rain in parts of Albuquerque and Tijeras...and Ruidoso...transitioning to mostly snow near Edgewood...Mountainair... and Sandia Park.. expect visibility down to one half mile at times within periods of heavier snow. Some slushy to snow packed areas will develop along some Road and Highway surfaces. For the latest Road conditions dial 5 1 1 or visit nmroads.Com.

×

10-Day Weather Forecast

Almanac

Astronomy

Dec. 17, 2014 Rise Set
Actual Time
Civil Twilight
Nautical Twilight
Astronomical Twilight
Moon
Length of Visible Light
Length of Day
Tomorrow will be .
, % of the Moon is Illuminated

Today's Extremes

State Highs State Lows

Community

WunderPhotos

Upload Photos

1,778,825 photos uploaded!

WunderBlogs® & News

Nearby

Air Quality

  Air Quality AQ Index Pollutant
Not available.

Snow Depth

Station Depth Elevation

Earthquake Activity

City Distance Mag. Time & Date
Minimum magnitude displayed is 2.5.

Coastal Water Temperatures

Place Temperature

Nearby Weather Stations